Time;durP1;ratioP1;P1;durP2;ratioP2;P2;SDS_P1;SDS_P2;PMS_P1;PMS_P2;Temp;Humidity;BMP_temperature;BMP_pressure;BME280_temperature;BME280_humidity;BME280_pressure;Samples;Min_cycle;Max_cycle;Signal;HPM_P1;HPM_P2
2023/04/26 00:01:48;;;;;;;7.20;2.40;;;2.50;99.90;;;;;;4948249;28;20082;-71
2023/04/26 00:04:14;;;;;;;9.65;2.42;;;2.60;99.90;;;;;;4969376;28;20605;-70
2023/04/26 00:06:40;;;;;;;10.13;2.42;;;2.50;99.90;;;;;;4977026;28;20117;-70
2023/04/26 00:09:06;;;;;;;10.85;2.60;;;2.50;99.90;;;;;;4984224;28;20419;-70
2023/04/26 00:11:32;;;;;;;6.15;2.35;;;2.50;99.90;;;;;;4983259;28;20050;-70
2023/04/26 00:13:58;;;;;;;10.68;2.78;;;2.50;99.90;;;;;;4964877;28;20038;-70
2023/04/26 00:16:24;;;;;;;10.95;2.72;;;2.60;99.90;;;;;;4962290;28;20074;-70
2023/04/26 00:18:50;;;;;;;5.35;2.40;;;2.60;99.90;;;;;;4968731;28;20047;-70
2023/04/26 00:21:15;;;;;;;7.35;2.45;;;2.70;99.90;;;;;;4968277;28;20092;-70
2023/04/26 00:23:41;;;;;;;7.78;3.22;;;2.70;99.90;;;;;;4963767;28;20030;-70
2023/04/26 00:26:07;;;;;;;8.30;2.50;;;2.70;99.90;;;;;;4977286;28;20517;-70
2023/04/26 00:28:33;;;;;;;8.93;2.53;;;2.80;99.90;;;;;;4965769;28;20038;-71
2023/04/26 00:30:59;;;;;;;5.55;2.38;;;2.90;99.90;;;;;;4968433;28;20137;-70
2023/04/26 00:33:25;;;;;;;8.00;2.80;;;2.90;99.90;;;;;;4976716;28;20050;-70
2023/04/26 00:35:51;;;;;;;7.00;2.17;;;3.00;99.90;;;;;;4961074;28;20054;-70
2023/04/26 00:38:17;;;;;;;8.75;2.50;;;3.00;99.90;;;;;;4979375;28;20092;-70
2023/04/26 00:40:43;;;;;;;7.25;2.35;;;3.10;99.90;;;;;;4951877;28;20062;-70
2023/04/26 00:43:09;;;;;;;9.88;2.63;;;3.20;99.90;;;;;;4964814;28;20050;-70
2023/04/26 00:45:35;;;;;;;9.15;2.60;;;3.20;99.90;;;;;;4965575;28;20075;-70
2023/04/26 00:48:02;;;;;;;11.02;2.42;;;3.30;99.90;;;;;;4963997;28;20088;-70
2023/04/26 00:50:30;;;;;;;5.65;2.17;;;3.30;99.90;;;;;;4967490;28;20045;-70
2023/04/26 00:53:01;;;;;;;7.30;2.50;;;3.30;99.90;;;;;;4964261;28;20042;-70
2023/04/26 00:55:26;;;;;;;5.10;2.17;;;3.30;99.90;;;;;;4971264;28;20039;-70
2023/04/26 00:57:52;;;;;;;8.90;2.30;;;3.40;99.90;;;;;;4968732;28;20421;-70
2023/04/26 01:00:18;;;;;;;9.30;3.35;;;3.40;99.90;;;;;;4965902;28;20085;-70
2023/04/26 01:02:44;;;;;;;7.30;2.72;;;3.50;99.90;;;;;;4967204;28;20108;-70
2023/04/26 01:05:10;;;;;;;8.38;2.38;;;3.40;99.90;;;;;;4964068;28;20067;-70
2023/04/26 01:07:37;;;;;;;9.48;2.20;;;3.40;99.90;;;;;;4984263;28;20089;-70
2023/04/26 01:10:04;;;;;;;8.82;2.53;;;3.40;99.90;;;;;;4969374;28;20081;-70
2023/04/26 01:12:31;;;;;;;7.45;2.60;;;3.40;99.90;;;;;;4963325;28;20058;-70
2023/04/26 01:14:58;;;;;;;8.73;2.33;;;3.40;99.90;;;;;;4963917;28;20130;-70
2023/04/26 01:17:24;;;;;;;6.38;3.08;;;3.40;99.90;;;;;;4966833;28;20038;-70
2023/04/26 01:19:50;;;;;;;5.13;2.10;;;3.30;99.90;;;;;;4965496;28;20072;-70
2023/04/26 01:22:17;;;;;;;7.63;2.35;;;3.30;99.90;;;;;;4984096;28;20665;-70
2023/04/26 01:24:45;;;;;;;12.63;2.67;;;3.20;99.90;;;;;;4981789;28;20052;-70
2023/04/26 01:27:11;;;;;;;8.15;2.53;;;3.10;99.90;;;;;;4968901;28;20438;-70
2023/04/26 01:29:37;;;;;;;9.15;2.53;;;3.10;99.90;;;;;;4965276;28;20050;-70
2023/04/26 01:32:03;;;;;;;11.00;3.08;;;3.00;99.90;;;;;;4960034;28;20043;-70
2023/04/26 01:34:29;;;;;;;11.38;2.00;;;3.00;99.90;;;;;;4962260;28;20044;-70
2023/04/26 01:36:55;;;;;;;11.23;2.90;;;2.90;99.90;;;;;;4982061;28;20049;-70
2023/04/26 01:39:21;;;;;;;6.63;2.03;;;2.80;99.90;;;;;;4965804;28;20038;-70
2023/04/26 01:41:47;;;;;;;6.90;2.45;;;2.80;99.90;;;;;;4954374;28;20082;-70
2023/04/26 01:44:12;;;;;;;8.13;2.17;;;2.70;99.90;;;;;;4988730;28;20051;-70
2023/04/26 01:46:38;;;;;;;10.65;2.30;;;2.60;99.90;;;;;;4965015;28;20085;-69
2023/04/26 01:49:04;;;;;;;6.38;2.05;;;2.60;99.90;;;;;;4971454;28;20444;-70
2023/04/26 01:51:30;;;;;;;8.18;2.30;;;2.60;99.90;;;;;;4962754;28;20039;-70
2023/04/26 01:53:55;;;;;;;6.53;2.20;;;2.60;99.90;;;;;;4965039;28;20492;-70
2023/04/26 01:56:23;;;;;;;9.02;2.70;;;2.60;99.90;;;;;;4964525;28;20054;-71
2023/04/26 01:58:49;;;;;;;9.05;2.80;;;2.60;99.90;;;;;;4965414;28;20110;-71
2023/04/26 02:01:15;;;;;;;6.43;1.83;;;2.70;99.90;;;;;;4960055;28;20115;-71
2023/04/26 02:03:41;;;;;;;6.50;2.55;;;2.70;99.90;;;;;;4963903;28;20093;-71
2023/04/26 02:06:07;;;;;;;10.75;2.45;;;2.80;99.90;;;;;;4965990;28;20487;-71
2023/04/26 02:08:33;;;;;;;8.55;2.45;;;2.80;99.90;;;;;;4966487;28;20034;-71
2023/04/26 02:10:58;;;;;;;4.43;1.77;;;2.90;99.90;;;;;;4959711;28;20356;-71
2023/04/26 02:13:25;;;;;;;5.35;2.08;;;2.90;99.90;;;;;;4980098;28;20491;-69
2023/04/26 02:15:50;;;;;;;9.80;2.80;;;3.00;99.90;;;;;;4969580;28;20121;-70
2023/04/26 02:18:20;;;;;;;9.73;2.33;;;3.10;99.90;;;;;;4961000;28;20175;-70
2023/04/26 02:20:46;;;;;;;4.60;2.15;;;3.20;99.90;;;;;;4962548;28;20051;-70
2023/04/26 02:23:12;;;;;;;5.90;2.85;;;3.20;99.90;;;;;;4952571;28;20038;-70
2023/04/26 02:25:38;;;;;;;3.83;2.00;;;3.20;99.90;;;;;;4968715;28;20133;-70
2023/04/26 02:28:05;;;;;;;6.75;2.00;;;3.20;99.90;;;;;;4962109;28;20049;-70
2023/04/26 02:30:31;;;;;;;7.68;2.28;;;3.20;99.90;;;;;;4978836;28;20134;-70
2023/04/26 02:32:57;;;;;;;8.05;2.33;;;3.20;99.90;;;;;;4950986;28;20133;-70
2023/04/26 02:35:23;;;;;;;6.20;2.58;;;3.20;99.90;;;;;;4967644;28;20093;-70
2023/04/26 02:37:51;;;;;;;5.85;2.58;;;3.20;99.90;;;;;;4960153;28;20364;-70
2023/04/26 02:40:20;;;;;;;5.93;2.10;;;3.20;99.90;;;;;;4964235;28;20070;-70
2023/04/26 02:42:46;;;;;;;7.68;2.05;;;3.20;99.90;;;;;;4984861;28;20129;-70
2023/04/26 02:45:12;;;;;;;6.65;1.98;;;3.20;99.90;;;;;;4967533;28;20546;-70
2023/04/26 02:47:38;;;;;;;4.43;1.75;;;3.20;99.90;;;;;;4964170;28;20061;-71
2023/04/26 02:50:08;;;;;;;9.20;2.53;;;3.20;99.90;;;;;;4970158;28;20042;-70
2023/04/26 02:52:36;;;;;;;8.00;1.92;;;3.20;99.90;;;;;;4969205;28;20039;-70
2023/04/26 02:55:03;;;;;;;7.40;1.70;;;3.20;99.90;;;;;;4969152;28;20108;-70
2023/04/26 02:57:30;;;;;;;6.10;2.22;;;3.10;99.90;;;;;;4963670;28;20045;-70
2023/04/26 02:59:56;;;;;;;8.43;3.13;;;3.10;99.90;;;;;;4974072;28;20038;-70
2023/04/26 03:02:22;;;;;;;6.50;2.17;;;3.00;99.90;;;;;;4966805;28;20469;-70
2023/04/26 03:04:48;;;;;;;6.50;2.00;;;3.00;99.90;;;;;;4967992;28;20042;-70
2023/04/26 03:07:13;;;;;;;8.10;1.90;;;2.90;99.90;;;;;;4981142;28;20031;-70
2023/04/26 03:09:39;;;;;;;6.18;2.45;;;2.90;99.90;;;;;;4983252;28;20101;-70
2023/04/26 03:12:08;;;;;;;7.45;2.15;;;2.80;99.90;;;;;;4968498;28;20039;-70
2023/04/26 03:14:35;;;;;;;5.07;2.10;;;2.80;99.90;;;;;;4964134;28;20049;-70
2023/04/26 03:17:01;;;;;;;3.88;1.75;;;2.90;99.90;;;;;;4954644;28;20062;-71
2023/04/26 03:19:27;;;;;;;6.55;2.10;;;2.70;99.90;;;;;;4961979;28;20038;-71
2023/04/26 03:21:54;;;;;;;6.43;1.85;;;2.70;99.90;;;;;;4970311;28;20053;-70
2023/04/26 03:24:20;;;;;;;8.88;2.20;;;2.60;99.90;;;;;;4963861;28;20411;-70
2023/04/26 03:26:46;;;;;;;9.05;2.03;;;2.60;99.90;;;;;;4982773;28;20042;-70
2023/04/26 03:29:12;;;;;;;7.13;2.30;;;2.60;99.90;;;;;;4986315;28;20046;-70
2023/04/26 03:31:37;;;;;;;6.38;1.90;;;2.50;99.90;;;;;;4969006;28;20042;-70
2023/04/26 03:34:04;;;;;;;7.95;2.20;;;2.50;99.90;;;;;;4983028;28;20631;-70
2023/04/26 03:36:29;;;;;;;8.60;2.88;;;2.40;99.90;;;;;;4969370;28;20042;-70
2023/04/26 03:38:55;;;;;;;9.73;2.00;;;2.40;99.90;;;;;;4967456;28;20359;-70
2023/04/26 03:41:22;;;;;;;8.98;1.90;;;2.40;99.90;;;;;;4970093;28;20050;-70
2023/04/26 03:43:48;;;;;;;5.82;1.83;;;2.30;99.90;;;;;;4963507;28;20035;-70
2023/04/26 03:46:13;;;;;;;9.05;2.55;;;2.30;99.90;;;;;;4963092;28;20109;-70
2023/04/26 03:48:39;;;;;;;9.27;2.08;;;2.20;99.90;;;;;;4970213;28;20471;-69
2023/04/26 03:51:05;;;;;;;4.88;2.15;;;2.20;99.90;;;;;;4966566;28;20129;-70
2023/04/26 03:53:32;;;;;;;5.10;2.25;;;2.20;99.90;;;;;;4966990;28;20050;-70
2023/04/26 03:55:57;;;;;;;5.90;1.98;;;2.10;99.90;;;;;;4963817;28;20039;-71
2023/04/26 03:58:26;;;;;;;7.53;1.88;;;2.20;99.90;;;;;;4972360;28;20104;-70
2023/04/26 04:00:56;;;;;;;9.85;2.33;;;2.10;99.90;;;;;;4965777;28;20399;-70
2023/04/26 04:03:22;;;;;;;8.90;2.28;;;2.10;99.90;;;;;;4983029;28;20046;-70
2023/04/26 04:05:48;;;;;;;3.10;1.85;;;2.10;99.90;;;;;;4979007;28;20035;-70
2023/04/26 04:08:14;;;;;;;5.63;2.05;;;2.10;99.90;;;;;;4965357;28;20117;-70
2023/04/26 04:10:41;;;;;;;10.27;2.70;;;2.10;99.90;;;;;;4968229;28;20054;-70
2023/04/26 04:13:07;;;;;;;8.88;2.35;;;2.10;99.90;;;;;;4981416;28;20094;-70
2023/04/26 04:15:33;;;;;;;8.52;1.98;;;2.10;99.90;;;;;;4960569;28;20129;-70
2023/04/26 04:17:59;;;;;;;11.45;3.50;;;2.10;99.90;;;;;;4961931;28;20038;-70
2023/04/26 04:20:24;;;;;;;5.57;2.22;;;2.10;99.90;;;;;;4967012;28;20042;-70
2023/04/26 04:22:50;;;;;;;8.93;2.15;;;2.00;99.90;;;;;;4983219;28;20076;-70
2023/04/26 04:25:16;;;;;;;4.10;2.25;;;2.10;99.90;;;;;;4959796;28;20066;-70
2023/04/26 04:27:42;;;;;;;9.93;2.45;;;2.00;99.90;;;;;;4965589;28;20096;-70
2023/04/26 04:30:08;;;;;;;7.18;2.47;;;2.00;99.90;;;;;;4970568;28;20049;-70
2023/04/26 04:32:35;;;;;;;4.68;2.33;;;2.00;99.90;;;;;;4959626;28;20125;-71
2023/04/26 04:35:01;;;;;;;5.38;2.72;;;2.00;99.90;;;;;;4960721;28;20050;-71
2023/04/26 04:37:32;;;;;;;6.60;2.70;;;2.20;99.90;;;;;;4965633;28;20039;-71
2023/04/26 04:39:58;;;;;;;10.00;3.88;;;2.00;99.90;;;;;;4954742;28;20122;-71
2023/04/26 04:42:26;;;;;;;7.55;2.92;;;2.00;99.90;;;;;;4972050;28;20058;-71
2023/04/26 04:44:52;;;;;;;9.00;2.85;;;2.00;99.90;;;;;;4965819;28;20081;-71
2023/04/26 04:47:18;;;;;;;8.55;2.33;;;2.10;99.90;;;;;;4980997;28;20051;-69
2023/04/26 04:49:44;;;;;;;10.52;2.67;;;2.10;99.90;;;;;;4965321;28;20048;-69
2023/04/26 04:52:09;;;;;;;6.30;2.78;;;2.10;99.90;;;;;;4959238;28;20157;-70
2023/04/26 04:54:35;;;;;;;10.05;3.20;;;2.10;99.90;;;;;;4963241;28;20121;-70
2023/04/26 04:57:02;;;;;;;6.03;2.35;;;2.20;99.90;;;;;;4978137;28;20126;-70
2023/04/26 04:59:28;;;;;;;9.32;2.70;;;2.20;99.90;;;;;;4951079;28;20569;-70
2023/04/26 05:01:54;;;;;;;5.53;2.47;;;2.30;99.90;;;;;;4961463;28;20043;-70
2023/04/26 05:04:20;;;;;;;7.78;2.90;;;2.30;99.90;;;;;;4970369;28;20038;-70
2023/04/26 05:06:46;;;;;;;5.38;2.70;;;2.40;99.90;;;;;;4967609;28;20031;-70
2023/04/26 05:09:11;;;;;;;6.72;2.70;;;2.60;99.90;;;;;;4969355;28;20177;-70
2023/04/26 05:11:37;;;;;;;9.55;3.22;;;2.70;99.90;;;;;;4961867;28;20042;-70
2023/04/26 05:14:03;;;;;;;7.72;2.75;;;2.90;99.90;;;;;;4953216;28;20045;-70
2023/04/26 05:16:29;;;;;;;6.72;2.85;;;3.10;99.90;;;;;;4969315;28;20054;-71
2023/04/26 05:18:54;;;;;;;5.82;2.72;;;3.30;99.90;;;;;;4973589;28;20499;-71
2023/04/26 05:21:21;;;;;;;4.32;2.88;;;3.50;99.90;;;;;;4969719;28;20031;-71
2023/04/26 05:23:47;;;;;;;9.93;3.03;;;3.60;99.90;;;;;;4966561;28;20041;-71
2023/04/26 05:26:15;;;;;;;10.10;2.75;;;3.70;99.90;;;;;;4990662;28;20470;-71
2023/04/26 05:28:41;;;;;;;8.00;2.92;;;3.80;99.90;;;;;;4966315;28;20214;-69
2023/04/26 05:31:08;;;;;;;6.25;2.85;;;3.90;99.90;;;;;;4984043;28;20038;-69
2023/04/26 05:33:34;;;;;;;5.35;2.47;;;3.90;99.90;;;;;;4967941;28;20441;-69
2023/04/26 05:36:00;;;;;;;5.13;2.47;;;4.00;99.90;;;;;;4972876;28;20035;-69
2023/04/26 05:38:26;;;;;;;10.07;3.10;;;4.20;99.90;;;;;;4969211;28;20097;-70
2023/04/26 05:40:52;;;;;;;7.53;2.70;;;4.40;99.90;;;;;;4968273;28;20133;-70
2023/04/26 05:43:18;;;;;;;8.60;2.80;;;4.70;99.90;;;;;;4974472;28;20086;-71
2023/04/26 05:45:53;;;;;;;5.03;2.47;;;4.80;99.90;;;;;;4971853;28;21135;-70
2023/04/26 05:48:21;;;;;;;6.63;2.53;;;5.00;99.90;;;;;;4966079;28;20130;-71
2023/04/26 05:50:47;;;;;;;5.55;2.70;;;5.10;99.90;;;;;;4977283;28;20042;-71
2023/04/26 05:53:13;;;;;;;7.00;2.30;;;5.30;99.90;;;;;;4965514;28;20514;-71
2023/04/26 05:55:40;;;;;;;8.05;2.53;;;5.30;99.90;;;;;;4969874;28;20055;-71
2023/04/26 05:58:06;;;;;;;5.75;2.25;;;5.50;99.90;;;;;;4973393;28;20050;-70
2023/04/26 06:00:32;;;;;;;8.88;2.47;;;5.70;99.90;;;;;;4952737;28;20089;-70
2023/04/26 06:02:58;;;;;;;8.10;2.40;;;5.90;99.90;;;;;;4970509;28;20105;-71
2023/04/26 06:05:24;;;;;;;11.07;2.53;;;6.20;99.90;;;;;;4968164;28;20051;-71
2023/04/26 06:07:50;;;;;;;6.75;1.90;;;6.40;99.90;;;;;;4966634;28;20039;-71
2023/04/26 06:10:16;;;;;;;4.28;2.10;;;6.70;99.90;;;;;;4964014;28;20442;-72
2023/04/26 06:12:42;;;;;;;7.07;2.20;;;6.80;99.90;;;;;;4969731;28;20169;-72
2023/04/26 06:15:09;;;;;;;4.93;1.90;;;6.90;99.90;;;;;;4967475;28;20046;-72
2023/04/26 06:17:34;;;;;;;4.72;2.05;;;6.90;99.90;;;;;;4968707;28;20128;-72
2023/04/26 06:20:00;;;;;;;5.50;1.70;;;6.90;99.90;;;;;;4966592;28;20055;-71
2023/04/26 06:22:26;;;;;;;5.45;1.92;;;6.90;99.90;;;;;;4972716;28;20108;-72
2023/04/26 06:24:51;;;;;;;4.57;1.63;;;6.90;99.90;;;;;;4973625;28;20117;-71
2023/04/26 06:27:17;;;;;;;5.13;2.00;;;6.90;99.90;;;;;;4963832;28;20073;-71
2023/04/26 06:29:44;;;;;;;3.45;1.90;;;6.90;99.90;;;;;;4985434;28;20508;-71
2023/04/26 06:32:09;;;;;;;4.95;2.47;;;7.00;99.90;;;;;;4969569;28;20085;-71
2023/04/26 06:34:36;;;;;;;7.03;2.22;;;7.00;99.90;;;;;;4970995;28;20134;-71
2023/04/26 06:37:03;;;;;;;3.85;2.10;;;7.10;99.90;;;;;;4982506;28;20086;-71
2023/04/26 06:39:29;;;;;;;5.28;1.67;;;7.10;99.90;;;;;;4963204;28;20517;-71
2023/04/26 06:41:55;;;;;;;9.90;1.98;;;7.30;99.90;;;;;;4967636;28;20051;-71
2023/04/26 06:44:21;;;;;;;6.13;1.80;;;7.40;99.90;;;;;;4983298;28;20047;-71
2023/04/26 06:46:48;;;;;;;6.78;2.58;;;7.50;99.90;;;;;;4961866;28;20050;-72
2023/04/26 06:49:14;;;;;;;6.68;2.28;;;7.70;99.90;;;;;;4967840;28;20055;-72
2023/04/26 06:51:40;;;;;;;3.97;1.50;;;7.80;99.90;;;;;;4968508;28;20106;-71
2023/04/26 06:54:05;;;;;;;7.07;2.33;;;8.00;99.90;;;;;;4969531;28;20034;-71
2023/04/26 06:56:31;;;;;;;6.50;1.80;;;8.00;99.90;;;;;;4969060;28;20046;-71
2023/04/26 06:59:05;;;;;;;5.35;2.00;;;7.90;99.90;;;;;;4967380;28;20066;-72
2023/04/26 07:01:34;;;;;;;5.88;2.00;;;8.00;99.90;;;;;;4968515;28;20130;-71
2023/04/26 07:04:06;;;;;;;7.65;1.65;;;8.00;99.90;;;;;;4968176;28;20113;-72
2023/04/26 07:06:32;;;;;;;5.53;1.92;;;7.90;99.90;;;;;;4962560;28;20356;-72
2023/04/26 07:08:59;;;;;;;4.32;1.67;;;7.90;99.90;;;;;;4957489;28;20028;-72
2023/04/26 07:11:25;;;;;;;5.07;1.48;;;8.00;99.90;;;;;;4969717;28;20050;-72
2023/04/26 07:13:51;;;;;;;6.25;1.27;;;8.20;99.90;;;;;;4966776;28;20043;-72
2023/04/26 07:16:17;;;;;;;4.38;1.55;;;8.30;99.90;;;;;;4961566;28;20062;-72
2023/04/26 07:18:42;;;;;;;5.40;1.10;;;8.50;99.90;;;;;;4969811;28;20047;-72
2023/04/26 07:21:08;;;;;;;4.30;1.20;;;8.60;99.90;;;;;;4968240;28;20035;-72
2023/04/26 07:23:35;;;;;;;5.70;1.10;;;8.80;99.90;;;;;;4958105;28;20368;-73
2023/04/26 07:26:03;;;;;;;6.97;1.40;;;8.90;99.90;;;;;;4972813;28;20058;-72
2023/04/26 07:28:32;;;;;;;5.75;1.45;;;9.30;99.90;;;;;;4971253;28;20053;-73
2023/04/26 07:30:59;;;;;;;5.72;1.40;;;9.40;99.90;;;;;;4971876;28;20046;-73
2023/04/26 07:33:25;;;;;;;4.45;1.25;;;9.60;99.90;;;;;;4965361;28;20069;-73
2023/04/26 07:36:00;;;;;;;5.68;1.02;;;9.60;99.90;;;;;;4967247;28;20082;-73
2023/04/26 07:38:26;;;;;;;6.45;1.38;;;9.60;99.90;;;;;;4966111;28;20043;-73
2023/04/26 07:40:52;;;;;;;7.93;1.33;;;9.60;99.90;;;;;;4967008;28;20047;-73
2023/04/26 07:43:21;;;;;;;6.00;1.10;;;9.40;99.90;;;;;;4962677;28;20500;-73
2023/04/26 07:45:47;;;;;;;5.95;1.50;;;9.50;99.90;;;;;;4968000;28;20049;-73
2023/04/26 07:48:13;;;;;;;4.45;1.30;;;9.90;99.90;;;;;;4970149;28;20042;-73
2023/04/26 07:50:39;;;;;;;4.72;1.10;;;10.30;99.90;;;;;;4969756;28;20047;-73
2023/04/26 07:53:04;;;;;;;2.63;0.90;;;10.50;99.90;;;;;;4967868;28;20040;-73
2023/04/26 07:55:30;;;;;;;5.95;1.15;;;10.70;99.90;;;;;;4967757;28;20685;-74
2023/04/26 07:57:56;;;;;;;5.65;1.20;;;11.00;99.90;;;;;;4968864;28;20126;-74
2023/04/26 08:00:22;;;;;;;5.82;1.75;;;11.40;99.90;;;;;;4969960;28;20039;-74
2023/04/26 08:02:48;;;;;;;6.45;1.13;;;11.60;99.90;;;;;;4971022;28;20062;-74
2023/04/26 08:05:15;;;;;;;6.03;0.90;;;11.90;99.90;;;;;;4983765;28;20042;-74
2023/04/26 08:07:42;;;;;;;3.50;1.10;;;12.50;99.90;;;;;;4967990;28;20113;-75
2023/04/26 08:10:08;;;;;;;6.22;0.93;;;12.70;99.90;;;;;;4968352;28;20038;-74
2023/04/26 08:12:35;;;;;;;4.88;0.93;;;12.80;99.90;;;;;;4963177;28;20051;-75
2023/04/26 08:15:02;;;;;;;5.38;0.85;;;12.70;99.90;;;;;;4952863;28;20043;-75
2023/04/26 08:17:27;;;;;;;7.05;0.98;;;12.50;99.90;;;;;;4965613;28;20038;-74
2023/04/26 08:19:53;;;;;;;6.75;1.58;;;12.40;99.90;;;;;;4969692;28;20042;-75
2023/04/26 08:22:19;;;;;;;7.18;1.05;;;12.50;99.90;;;;;;4970497;28;20042;-75
2023/04/26 08:24:49;;;;;;;4.00;1.00;;;12.40;99.90;;;;;;4964933;28;20039;-75
2023/04/26 08:27:16;;;;;;;3.97;0.85;;;12.00;99.90;;;;;;4959110;28;20098;-74
2023/04/26 08:29:42;;;;;;;3.75;0.88;;;11.50;99.90;;;;;;4963497;28;20082;-75
2023/04/26 08:32:08;;;;;;;3.33;0.80;;;11.10;99.90;;;;;;4964634;28;20123;-74
2023/04/26 08:34:33;;;;;;;5.57;1.08;;;10.70;99.90;;;;;;4963742;28;20066;-74
2023/04/26 08:36:59;;;;;;;4.28;1.05;;;10.40;99.90;;;;;;4972906;28;20125;-74
2023/04/26 08:39:25;;;;;;;4.07;0.95;;;10.10;99.90;;;;;;4965462;28;20384;-74
2023/04/26 08:41:58;;;;;;;4.70;1.08;;;9.90;99.90;;;;;;4965075;28;20078;-75
2023/04/26 08:44:24;;;;;;;6.65;0.85;;;9.80;99.90;;;;;;4967448;28;20566;-74
2023/04/26 08:47:05;;;;;;;2.97;0.60;;;9.70;99.90;;;;;;4970526;28;20375;-75
2023/04/26 08:49:40;;;;;;;6.68;0.95;;;9.70;99.90;;;;;;4966237;28;20411;-75
2023/04/26 08:52:11;;;;;;;2.90;1.00;;;9.80;99.90;;;;;;4965471;28;20050;-74
2023/04/26 08:54:38;;;;;;;4.25;0.85;;;10.00;99.90;;;;;;4971421;28;20506;-75
2023/04/26 08:57:06;;;;;;;5.22;1.33;;;10.40;99.90;;;;;;4971751;28;20041;-75
2023/04/26 08:59:36;;;;;;;5.30;1.05;;;10.90;99.90;;;;;;4967188;28;20079;-75
2023/04/26 09:02:05;;;;;;;5.18;1.00;;;11.20;99.90;;;;;;4969559;28;20520;-74
2023/04/26 09:04:31;;;;;;;4.22;0.80;;;11.10;99.90;;;;;;4972699;28;20038;-75
2023/04/26 09:07:03;;;;;;;4.28;0.90;;;11.10;99.90;;;;;;4985428;28;20406;-75
2023/04/26 09:09:41;;;;;;;4.15;0.70;;;11.30;99.90;;;;;;4965744;28;20621;-74
2023/04/26 09:12:07;;;;;;;2.47;0.75;;;11.80;99.90;;;;;;4968630;28;20059;-75
2023/04/26 09:14:33;;;;;;;5.72;0.80;;;12.50;99.90;;;;;;4969719;28;20047;-74
2023/04/26 09:16:59;;;;;;;5.25;1.10;;;13.20;99.90;;;;;;4970969;28;20094;-75
2023/04/26 09:19:43;;;;;;;3.75;0.68;;;13.60;99.90;;;;;;4971407;28;20038;-75
2023/04/26 09:22:09;;;;;;;5.90;0.70;;;13.90;99.90;;;;;;4971306;28;20180;-75
2023/04/26 09:24:50;;;;;;;2.70;0.52;;;14.10;99.90;;;;;;4975356;28;20395;-75
2023/04/26 09:27:17;;;;;;;3.63;0.70;;;14.40;96.70;;;;;;4969607;28;20046;-75
2023/04/26 09:30:19;;;;;;;4.13;1.00;;;14.60;99.90;;;;;;4968300;28;20043;-75
2023/04/26 09:33:03;;;;;;;5.80;0.73;;;14.60;90.50;;;;;;4879196;29;20044;-75
2023/04/26 09:35:40;;;;;;;3.65;0.80;;;14.50;93.70;;;;;;4966250;28;20160;-75
2023/04/26 09:38:08;;;;;;;1.88;0.70;;;14.60;94.40;;;;;;4975054;28;20038;-76
2023/04/26 09:40:45;;;;;;;4.70;0.90;;;14.90;99.90;;;;;;4968785;28;20113;-75
2023/04/26 09:43:18;;;;;;;3.47;0.70;;;15.40;98.80;;;;;;4956965;28;20047;-74
2023/04/26 09:45:44;;;;;;;2.90;0.70;;;15.80;93.00;;;;;;4950615;28;20484;-74
2023/04/26 09:48:40;;;;;;;3.60;0.70;;;15.70;96.40;;;;;;4950258;28;20106;-75
2023/04/26 09:51:11;;;;;;;4.93;1.00;;;15.40;93.50;;;;;;4954241;28;20138;-75
2023/04/26 09:53:45;;;;;;;6.82;1.00;;;15.10;93.80;;;;;;4955687;28;20067;-75
2023/04/26 09:56:16;;;;;;;;;;;15.10;92.80;;;;;;4946988;28;20423;-75
2023/04/26 09:58:59;;;;;;;3.50;0.60;;;15.10;81.60;;;;;;4953199;28;19922;-74
2023/04/26 10:01:28;;;;;;;2.38;0.63;;;15.30;90.00;;;;;;4941201;29;20040;-74
2023/04/26 10:03:56;;;;;;;2.78;0.70;;;15.40;93.70;;;;;;4959156;28;20039;-75
2023/04/26 10:06:22;;;;;;;2.47;0.70;;;15.40;91.40;;;;;;4955186;28;20035;-75
2023/04/26 10:08:48;;;;;;;5.43;0.85;;;15.20;90.60;;;;;;4956967;28;20043;-74
2023/04/26 10:11:13;;;;;;;3.80;0.90;;;14.80;88.20;;;;;;4959739;28;20031;-75
2023/04/26 10:13:40;;;;;;;4.55;0.90;;;14.20;87.80;;;;;;4942678;28;20039;-75
2023/04/26 10:16:08;;;;;;;4.25;1.10;;;13.30;86.70;;;;;;4944423;29;20043;-76
2023/04/26 10:18:34;;;;;;;4.65;1.40;;;12.30;90.60;;;;;;4955524;28;20440;-75
2023/04/26 10:21:10;;;;;;;4.53;1.23;;;11.50;92.40;;;;;;4941550;29;20043;-74
2023/04/26 10:23:36;;;;;;;3.38;1.38;;;11.00;94.50;;;;;;4958216;28;20087;-75
2023/04/26 10:26:02;;;;;;;5.78;1.40;;;10.40;96.70;;;;;;4956099;28;20048;-74
2023/04/26 10:29:00;;;;;;;5.97;1.50;;;9.90;98.80;;;;;;4948897;28;20039;-74
2023/04/26 10:31:45;;;;;;;3.95;1.38;;;9.60;99.50;;;;;;4950549;28;20512;-74
2023/04/26 10:34:21;;;;;;;5.70;1.52;;;9.20;99.90;;;;;;4947811;28;20389;-73
2023/04/26 10:37:12;;;;;;;4.78;1.38;;;9.00;99.90;;;;;;4942275;28;20372;-73
2023/04/26 10:39:40;;;;;;;6.15;1.35;;;9.00;99.90;;;;;;4948594;28;20039;-73
2023/04/26 10:42:26;;;;;;;6.20;1.20;;;8.90;99.90;;;;;;4960355;28;20105;-74
2023/04/26 10:44:56;;;;;;;4.80;1.00;;;9.00;99.90;;;;;;4971124;28;20615;-74
2023/04/26 10:47:30;;;;;;;6.75;1.55;;;9.00;99.90;;;;;;4963418;28;20047;-74
2023/04/26 10:50:09;;;;;;;;;;;9.00;99.90;;;;;;4969086;28;20049;-73
2023/04/26 10:52:55;;;;;;;5.47;1.20;;;9.00;99.90;;;;;;4965048;28;20382;-74
2023/04/26 10:55:43;;;;;;;6.20;1.23;;;9.10;99.90;;;;;;4967068;28;20031;-74
2023/04/26 10:58:45;;;;;;;7.70;1.15;;;9.30;99.90;;;;;;4968557;28;20492;-73
2023/04/26 11:01:15;;;;;;;3.40;1.10;;;9.40;99.90;;;;;;4913541;29;20044;-74
2023/04/26 11:03:41;;;;;;;5.90;1.30;;;9.50;99.90;;;;;;4952437;28;20051;-73
2023/04/26 11:06:14;;;;;;;5.65;0.98;;;9.70;99.90;;;;;;4965494;28;20035;-74
2023/04/26 11:08:40;;;;;;;5.93;1.00;;;9.90;99.90;;;;;;4969745;28;20074;-74
2023/04/26 11:11:12;;;;;;;4.13;1.00;;;10.20;99.90;;;;;;4962615;28;20050;-74
2023/04/26 11:13:40;;;;;;;4.70;1.10;;;10.30;99.90;;;;;;4960985;28;20047;-74
2023/04/26 11:16:08;;;;;;;4.00;0.75;;;10.70;99.90;;;;;;4970234;28;20035;-74
2023/04/26 11:18:35;;;;;;;4.70;1.00;;;11.30;99.90;;;;;;4971583;28;20050;-75
2023/04/26 11:21:01;;;;;;;3.45;1.10;;;12.00;99.90;;;;;;4969354;28;20491;-74
2023/04/26 11:23:29;;;;;;;4.72;1.10;;;12.90;99.90;;;;;;4985630;28;20451;-75
2023/04/26 11:26:02;;;;;;;6.82;0.93;;;13.50;98.70;;;;;;4960978;28;20047;-75
2023/04/26 11:28:31;;;;;;;6.47;1.30;;;13.80;93.30;;;;;;4973067;28;20043;-75
2023/04/26 11:30:58;;;;;;;6.78;1.00;;;13.80;95.00;;;;;;4968244;28;20515;-75
2023/04/26 11:33:24;;;;;;;3.63;0.98;;;13.70;90.30;;;;;;4965045;28;20098;-75
2023/04/26 11:35:51;;;;;;;6.28;1.10;;;13.40;87.10;;;;;;4966905;28;20081;-75
2023/04/26 11:38:20;;;;;;;4.55;0.73;;;12.90;86.90;;;;;;4971900;28;20046;-75
2023/04/26 11:40:56;;;;;;;3.80;0.70;;;12.60;87.00;;;;;;4967878;28;20036;-75
2023/04/26 11:43:28;;;;;;;5.32;1.17;;;12.30;84.70;;;;;;4987296;28;20174;-75
2023/04/26 11:45:59;;;;;;;2.80;1.00;;;12.10;88.60;;;;;;4962094;28;20038;-74
2023/04/26 11:48:25;;;;;;;6.10;1.13;;;11.90;89.20;;;;;;4975711;28;20046;-75
2023/04/26 11:50:51;;;;;;;5.07;1.25;;;12.00;90.10;;;;;;4966028;28;20057;-74
2023/04/26 11:53:17;;;;;;;5.00;1.00;;;12.70;91.50;;;;;;4976112;28;20046;-75
2023/04/26 11:55:44;;;;;;;3.67;1.25;;;13.20;89.70;;;;;;4991043;28;20101;-74
2023/04/26 11:58:14;;;;;;;3.97;1.00;;;13.10;86.80;;;;;;4973944;28;20066;-75
2023/04/26 12:00:56;;;;;;;6.63;1.52;;;12.80;86.60;;;;;;4967867;28;20066;-75
2023/04/26 12:03:23;;;;;;;5.07;1.42;;;12.60;88.60;;;;;;4978199;28;20073;-74
2023/04/26 12:05:55;;;;;;;5.22;1.33;;;12.20;91.90;;;;;;4953951;28;20129;-75
2023/04/26 12:08:24;;;;;;;6.53;1.17;;;12.10;92.10;;;;;;4974403;28;20042;-75
2023/04/26 12:10:50;;;;;;;2.20;1.02;;;11.80;92.20;;;;;;4967406;28;20042;-74
2023/04/26 12:13:16;;;;;;;3.58;1.50;;;11.70;93.30;;;;;;4987144;28;20092;-74
2023/04/26 12:15:41;;;;;;;5.18;1.30;;;11.70;93.90;;;;;;4967184;28;20318;-74
2023/04/26 12:18:09;;;;;;;4.30;1.15;;;11.50;93.50;;;;;;4972232;28;20569;-75
2023/04/26 12:20:42;;;;;;;3.70;1.00;;;11.40;93.10;;;;;;4967444;28;20053;-75
2023/04/26 12:23:09;;;;;;;2.80;1.13;;;11.30;92.80;;;;;;4991064;28;20045;-75
2023/04/26 12:25:38;;;;;;;4.53;0.88;;;11.00;93.60;;;;;;4971150;28;20043;-74
2023/04/26 12:28:10;;;;;;;4.63;1.08;;;10.90;92.50;;;;;;4959876;28;20041;-75
2023/04/26 12:30:37;;;;;;;5.00;1.77;;;10.80;93.70;;;;;;4968967;28;20053;-74
2023/04/26 12:33:04;;;;;;;4.95;1.45;;;10.80;94.00;;;;;;4974371;28;20084;-75
2023/04/26 12:35:30;;;;;;;4.30;1.02;;;10.80;95.20;;;;;;4973391;28;20551;-75
2023/04/26 12:37:59;;;;;;;5.47;1.30;;;10.90;95.70;;;;;;4969342;28;20042;-75
2023/04/26 12:40:25;;;;;;;4.65;1.55;;;10.90;96.60;;;;;;4967942;28;20420;-75
2023/04/26 12:42:51;;;;;;;6.22;1.60;;;10.90;97.30;;;;;;4968246;28;20058;-74
2023/04/26 12:45:18;;;;;;;8.70;2.08;;;10.90;97.50;;;;;;4976026;28;20066;-75
2023/04/26 12:47:46;;;;;;;5.95;1.45;;;10.70;97.30;;;;;;4951715;28;20043;-76
2023/04/26 12:50:13;;;;;;;6.25;1.67;;;10.60;97.30;;;;;;4967719;28;20051;-75
2023/04/26 12:52:40;;;;;;;5.55;1.42;;;10.60;99.30;;;;;;4986408;28;20050;-75
2023/04/26 12:55:07;;;;;;;6.00;1.70;;;10.70;98.70;;;;;;4975066;28;20030;-75
2023/04/26 12:57:34;;;;;;;6.00;2.00;;;10.60;98.10;;;;;;4961750;28;20077;-75